CYRC weather

Chicoutimi St Honoré Airport
Chicoutimi, Quebec, Canada

Public forecast

Using degrees Celsius for public forecast. Weather courtesy of forecast.io.

Closest aviation weather report (METAR) to Chicoutimi St Honoré Airport

Closest report is CFB Bagotville, 11.6 nm (21.5 km) S. Retrieved 2020/04/04 21:00 UTC (27 minutes ago):

CYBG 042100Z 18002KT 25SM BKN055 05/M01 A3001 RMK SC7 SLP171

Closest aviation forecast (TAF) to Chicoutimi St Honoré Airport

Closest forecast is CFB Bagotville, 11.6 nm (21.5 km) S. Retrieved 2020/04/04 18:36 UTC (3 hours ago):

TAF TAF CYBG 041732Z 0418/0518 09005KT P6SM OVC050 FM050300 10005KT 6SM BR SCT005 BKN040 PROB30 0506/0512 1/2SM FZFG VV003 FM051500 VRB03KT 4SM -RA BR SCT005 OVC020 RMK NXT FCST BY 050000Z